createdAt,value
2018-04-26T00:02:02.332Z,10.00
2018-04-26T00:04:29.320Z,9.97
2018-04-26T00:06:56.337Z,9.90
2018-04-26T00:09:23.363Z,10.50
2018-04-26T00:11:51.131Z,10.70
2018-04-26T00:14:18.160Z,10.20
2018-04-26T00:16:45.164Z,10.90
2018-04-26T00:19:12.209Z,10.63
2018-04-26T00:21:39.219Z,10.63
2018-04-26T00:24:06.214Z,10.47
2018-04-26T00:26:40.184Z,10.17
2018-04-26T00:29:07.166Z,11.73
2018-04-26T00:31:34.188Z,11.23
2018-04-26T00:34:01.925Z,10.20
2018-04-26T00:36:28.931Z,10.20
2018-04-26T00:38:55.931Z,10.60
2018-04-26T00:41:22.917Z,10.13
2018-04-26T00:43:49.932Z,10.43
2018-04-26T00:46:17.697Z,10.80
2018-04-26T00:48:45.448Z,10.03
2018-04-26T00:51:12.444Z,10.20
2018-04-26T00:53:39.409Z,9.93
2018-04-26T00:56:06.416Z,11.20
2018-04-26T00:58:33.423Z,9.40
2018-04-26T01:01:00.636Z,10.50
2018-04-26T01:03:27.642Z,10.90
2018-04-26T01:05:55.502Z,11.20
2018-04-26T01:08:22.529Z,10.90
2018-04-26T01:10:50.287Z,9.90
2018-04-26T01:13:17.290Z,11.20
2018-04-26T01:15:45.011Z,11.97
2018-04-26T01:18:12.013Z,11.20
2018-04-26T01:20:39.005Z,12.20
2018-04-26T01:23:06.018Z,10.93
2018-04-26T01:25:33.048Z,10.67
2018-04-26T01:28:00.048Z,11.43
2018-04-26T01:30:27.292Z,11.27
2018-04-26T01:32:54.328Z,11.17
2018-04-26T01:35:21.324Z,11.33
2018-04-26T01:37:48.388Z,10.47
2018-04-26T01:40:15.401Z,11.70
2018-04-26T01:42:43.175Z,11.10
2018-04-26T01:45:10.184Z,11.60
2018-04-26T01:47:37.185Z,11.93
2018-04-26T01:50:04.200Z,13.00
2018-04-26T01:52:32.004Z,11.83
2018-04-26T01:54:59.024Z,10.47
2018-04-26T01:57:26.752Z,11.80
2018-04-26T01:59:54.504Z,10.13
2018-04-26T02:02:21.516Z,10.67
2018-04-26T02:04:48.546Z,9.90
2018-04-26T02:07:15.560Z,9.67
2018-04-26T02:09:42.558Z,10.27
2018-04-26T02:12:09.576Z,10.60
2018-04-26T02:14:37.338Z,9.00
2018-04-26T02:17:05.064Z,10.03
2018-04-26T02:19:32.088Z,10.20
2018-04-26T02:21:59.092Z,11.03
2018-04-26T02:24:26.098Z,10.47
2018-04-26T02:26:53.102Z,10.50
2018-04-26T02:29:20.088Z,9.80
2018-04-26T02:31:47.085Z,9.93
2018-04-26T02:34:14.823Z,11.33
2018-04-26T02:36:41.853Z,12.73
2018-04-26T02:39:08.865Z,10.60
2018-04-26T02:41:35.877Z,12.10
2018-04-26T02:44:02.901Z,12.60
2018-04-26T02:46:29.908Z,11.73
2018-04-26T02:48:56.952Z,10.97
2018-04-26T02:51:23.960Z,10.77
2018-04-26T02:53:51.707Z,12.67
2018-04-26T02:56:18.725Z,10.43
2018-04-26T02:58:45.717Z,11.53
2018-04-26T03:01:13.472Z,11.30
2018-04-26T03:03:40.467Z,10.63
2018-04-26T03:06:07.451Z,10.67
2018-04-26T03:08:34.500Z,11.47
2018-04-26T03:11:01.540Z,11.80
2018-04-26T03:13:28.539Z,10.77
2018-04-26T03:15:55.554Z,11.40
2018-04-26T03:18:22.547Z,10.80
2018-04-26T03:20:49.564Z,11.40
2018-04-26T03:23:17.308Z,11.40
2018-04-26T03:25:44.430Z,11.10
2018-04-26T03:28:11.425Z,12.70
2018-04-26T03:30:39.263Z,12.70
2018-04-26T03:33:06.273Z,11.47
2018-04-26T03:35:33.280Z,12.27
2018-04-26T03:38:00.280Z,12.67
2018-04-26T03:40:27.284Z,12.37
2018-04-26T03:42:54.264Z,10.50
2018-04-26T03:45:21.277Z,12.37
2018-04-26T03:47:48.283Z,11.07
2018-04-26T03:50:15.318Z,11.30
2018-04-26T03:52:42.320Z,12.67
2018-04-26T03:55:09.324Z,11.83
2018-04-26T03:57:36.349Z,11.83
2018-04-26T04:00:21.649Z,11.90
2018-04-26T04:03:07.215Z,12.63
2018-04-26T04:05:52.626Z,11.70
2018-04-26T04:08:19.797Z,11.70
2018-04-26T04:10:47.845Z,13.70
2018-04-26T04:13:14.922Z,13.53
2018-04-26T04:15:42.836Z,13.00
2018-04-26T04:18:09.916Z,13.50
2018-04-26T04:20:37.717Z,12.67
2018-04-26T04:23:05.017Z,13.47
2018-04-26T04:25:32.108Z,11.10
2018-04-26T04:27:59.203Z,12.80
2018-04-26T04:30:26.161Z,13.57
2018-04-26T04:32:53.172Z,13.53
2018-04-26T04:35:20.182Z,12.00
2018-04-26T04:37:47.199Z,13.00
2018-04-26T04:40:14.241Z,14.40
2018-04-26T04:42:41.247Z,11.83
2018-04-26T04:45:08.281Z,12.50
2018-04-26T04:47:35.281Z,12.90
2018-04-26T04:50:02.304Z,13.13
2018-04-26T04:52:29.339Z,14.67
2018-04-26T04:54:56.373Z,12.67
2018-04-26T04:57:23.432Z,13.70
2018-04-26T04:59:50.444Z,12.40
2018-04-26T05:02:18.204Z,13.40
2018-04-26T05:04:45.944Z,13.70
2018-04-26T05:07:13.737Z,14.67
2018-04-26T05:09:41.477Z,13.10
2018-04-26T05:12:08.491Z,13.63
2018-04-26T05:14:35.503Z,13.43
2018-04-26T05:17:03.259Z,12.13
2018-04-26T05:19:31.021Z,13.00
2018-04-26T05:21:58.028Z,14.20
2018-04-26T05:24:25.054Z,12.50
2018-04-26T05:26:52.101Z,12.00
2018-04-26T05:29:19.244Z,13.50
2018-04-26T05:31:46.318Z,12.43
2018-04-26T05:34:13.324Z,12.90
2018-04-26T05:36:40.338Z,14.17
2018-04-26T05:39:07.332Z,13.60
2018-04-26T05:41:34.362Z,13.87
2018-04-26T05:44:02.152Z,14.10
2018-04-26T05:46:29.147Z,12.37
2018-04-26T05:48:56.144Z,14.20
2018-04-26T05:51:23.160Z,13.83
2018-04-26T05:53:50.168Z,14.27
2018-04-26T05:56:17.189Z,14.03
2018-04-26T05:58:44.187Z,13.53
2018-04-26T06:01:11.229Z,13.03
2018-04-26T06:03:39.002Z,14.53
2018-04-26T06:06:06.025Z,13.90
2018-04-26T06:08:33.096Z,13.40
2018-04-26T06:11:00.333Z,14.33
2018-04-26T06:13:27.470Z,14.60
2018-04-26T06:15:54.673Z,13.37
2018-04-26T06:18:21.713Z,13.00
2018-04-26T06:20:48.952Z,12.83
2018-04-26T06:23:16.018Z,12.53
2018-04-26T06:25:43.086Z,12.83
2018-04-26T06:28:11.001Z,12.90
2018-04-26T06:30:38.084Z,12.53
2018-04-26T06:33:05.148Z,11.20
2018-04-26T06:35:32.219Z,13.93
2018-04-26T06:37:59.380Z,12.53
2018-04-26T06:40:26.719Z,11.17
2018-04-26T06:42:54.560Z,11.47
2018-04-26T06:45:22.334Z,9.77
2018-04-26T06:47:49.611Z,10.60
2018-04-26T06:50:16.633Z,9.70
2018-04-26T06:52:43.750Z,11.77
2018-04-26T06:55:10.769Z,10.27
2018-04-26T06:57:38.512Z,9.33
2018-04-26T07:00:05.741Z,10.80
2018-04-26T07:02:33.558Z,11.30
2018-04-26T07:05:00.603Z,11.40
2018-04-26T07:07:27.749Z,8.90
2018-04-26T07:09:54.802Z,9.50
2018-04-26T07:12:21.935Z,9.03
2018-04-26T07:14:49.036Z,8.33
2018-04-26T07:17:16.109Z,10.27
2018-04-26T07:19:43.282Z,8.70
2018-04-26T07:22:10.366Z,7.90
2018-04-26T07:24:37.559Z,8.47
2018-04-26T07:27:04.760Z,8.20
2018-04-26T07:29:31.915Z,7.80
2018-04-26T07:31:59.853Z,7.70
2018-04-26T07:34:27.025Z,9.00
2018-04-26T07:36:54.820Z,8.17
2018-04-26T07:39:21.878Z,8.70
2018-04-26T07:41:49.903Z,10.03
2018-04-26T07:44:16.928Z,10.23
2018-04-26T07:46:44.015Z,8.47
2018-04-26T07:49:11.211Z,7.93
2018-04-26T07:51:39.033Z,8.50
2018-04-26T07:54:06.866Z,8.70
2018-04-26T07:56:34.025Z,6.80
2018-04-26T07:59:01.124Z,8.20
2018-04-26T08:01:28.288Z,6.80
2018-04-26T08:03:55.397Z,7.40
2018-04-26T08:06:22.528Z,8.60
2018-04-26T08:08:49.688Z,7.87
2018-04-26T08:11:16.829Z,8.30
2018-04-26T08:13:43.915Z,6.40
2018-04-26T08:16:11.769Z,8.00
2018-04-26T08:18:39.096Z,8.47
2018-04-26T08:21:06.215Z,5.97
2018-04-26T08:23:33.951Z,6.90
2018-04-26T08:26:00.972Z,8.30
2018-04-26T08:28:28.017Z,9.77
2018-04-26T08:30:55.046Z,7.83
2018-04-26T08:33:22.136Z,9.83
2018-04-26T08:35:49.400Z,9.00
2018-04-26T08:38:16.582Z,9.43
2018-04-26T08:40:43.724Z,9.77
2018-04-26T08:43:10.845Z,10.20
2018-04-26T08:45:38.745Z,8.90
2018-04-26T08:48:05.826Z,8.53
2018-04-26T08:50:32.889Z,7.67
2018-04-26T08:52:59.902Z,7.87
2018-04-26T08:55:27.859Z,8.50
2018-04-26T08:57:55.213Z,7.23
2018-04-26T09:00:23.201Z,7.93
2018-04-26T09:02:50.292Z,8.40
2018-04-26T09:05:17.316Z,8.80
2018-04-26T09:07:44.611Z,7.93
2018-04-26T09:10:12.539Z,7.67
2018-04-26T09:12:39.557Z,7.90
2018-04-26T09:15:06.639Z,6.63
2018-04-26T09:17:34.604Z,8.20
2018-04-26T09:20:01.910Z,8.10
2018-04-26T09:22:29.090Z,7.73
2018-04-26T09:24:56.204Z,8.20
2018-04-26T09:27:23.251Z,8.37
2018-04-26T09:29:50.457Z,7.10
2018-04-26T09:32:18.283Z,8.77
2018-04-26T09:34:45.440Z,8.50
2018-04-26T09:37:12.584Z,8.27
2018-04-26T09:39:40.412Z,8.77
2018-04-26T09:42:08.253Z,7.47
2018-04-26T09:44:35.385Z,9.10
2018-04-26T09:47:02.637Z,9.43
2018-04-26T09:49:29.745Z,9.13
2018-04-26T09:51:56.872Z,7.17
2018-04-26T09:54:23.945Z,7.20
2018-04-26T09:56:51.123Z,7.67
2018-04-26T09:59:18.289Z,8.07
2018-04-26T10:01:45.454Z,7.20
2018-04-26T10:04:14.380Z,6.07
2018-04-26T10:06:47.657Z,5.77
2018-04-26T10:09:14.777Z,6.87
2018-04-26T10:11:41.845Z,7.53
2018-04-26T10:14:08.893Z,6.93
2018-04-26T10:16:35.911Z,7.10
2018-04-26T10:19:02.911Z,7.10
2018-04-26T10:21:30.659Z,6.90
2018-04-26T10:23:57.675Z,7.53
2018-04-26T10:26:24.780Z,7.07
2018-04-26T10:28:52.551Z,7.00
2018-04-26T10:31:19.575Z,7.47
2018-04-26T10:33:46.557Z,9.63
2018-04-26T10:36:13.589Z,10.60
2018-04-26T10:38:41.311Z,8.97
2018-04-26T10:41:08.320Z,8.00
2018-04-26T10:43:35.311Z,8.10
2018-04-26T10:46:02.721Z,8.43
2018-04-26T10:48:29.885Z,8.20
2018-04-26T10:50:57.054Z,8.00
2018-04-26T10:53:24.183Z,8.70
2018-04-26T10:55:51.218Z,7.80
2018-04-26T10:58:18.441Z,7.90
2018-04-26T11:00:45.676Z,7.90
2018-04-26T11:03:13.554Z,6.93
2018-04-26T11:05:40.636Z,6.60
2018-04-26T11:08:07.796Z,5.40
2018-04-26T11:10:34.848Z,6.13
2018-04-26T11:13:02.087Z,5.77
2018-04-26T11:15:29.429Z,5.80
2018-04-26T11:17:56.505Z,4.97
2018-04-26T11:20:23.639Z,3.77
2018-04-26T11:22:50.688Z,4.10
2018-04-26T11:25:17.692Z,4.20
2018-04-26T11:27:45.764Z,3.57
2018-04-26T11:30:12.912Z,4.47
2018-04-26T11:32:40.716Z,5.30
2018-04-26T11:35:07.953Z,3.50
2018-04-26T11:37:35.789Z,4.47
2018-04-26T11:40:03.796Z,4.30
2018-04-26T11:42:30.887Z,4.40
2018-04-26T11:44:57.900Z,4.10
2018-04-26T11:47:24.908Z,3.50
2018-04-26T11:49:52.648Z,3.63
2018-04-26T11:52:19.754Z,4.27
2018-04-26T11:54:46.880Z,3.43
2018-04-26T11:57:13.972Z,3.23
2018-04-26T11:59:41.692Z,3.63
2018-04-26T12:02:08.954Z,3.20
2018-04-26T12:04:36.029Z,3.10
2018-04-26T12:07:03.041Z,3.80
2018-04-26T12:09:31.015Z,4.33
2018-04-26T12:11:58.060Z,3.20
2018-04-26T12:14:25.064Z,3.40
2018-04-26T12:16:52.365Z,3.93
2018-04-26T12:19:19.685Z,3.67
2018-04-26T12:21:47.541Z,3.77
2018-04-26T12:24:14.822Z,3.20
2018-04-26T12:26:42.405Z,2.50
2018-04-26T12:29:10.438Z,3.50
2018-04-26T12:31:37.472Z,2.83
2018-04-26T12:34:04.474Z,3.20
2018-04-26T12:36:31.669Z,3.00
2018-04-26T12:38:58.858Z,2.23
2018-04-26T12:41:25.908Z,2.40
2018-04-26T12:43:53.054Z,2.50
2018-04-26T12:46:21.028Z,2.00
2018-04-26T12:48:48.116Z,2.10
2018-04-26T12:51:15.200Z,2.47
2018-04-26T12:53:42.225Z,2.40
2018-04-26T12:56:10.044Z,2.63
2018-04-26T12:58:37.188Z,2.80
2018-04-26T13:01:04.265Z,2.23
2018-04-26T13:03:31.410Z,2.03
2018-04-26T13:05:58.677Z,2.20
2018-04-26T13:08:26.596Z,2.50
2018-04-26T13:10:53.672Z,2.20
2018-04-26T13:13:20.677Z,2.03
2018-04-26T13:15:47.951Z,1.93
2018-04-26T13:18:15.063Z,2.27
2018-04-26T13:20:42.974Z,2.77
2018-04-26T13:23:10.248Z,2.37
2018-04-26T13:25:37.427Z,2.23
2018-04-26T13:28:04.557Z,2.63
2018-04-26T13:30:31.643Z,2.83
2018-04-26T13:32:58.802Z,2.80
2018-04-26T13:35:26.685Z,2.57
2018-04-26T13:37:54.429Z,2.10
2018-04-26T13:40:22.248Z,1.73
2018-04-26T13:42:50.052Z,1.80
2018-04-26T13:45:17.886Z,2.13
2018-04-26T13:47:44.919Z,2.60
2018-04-26T13:50:11.960Z,2.80
2018-04-26T13:52:39.741Z,1.97
2018-04-26T13:55:06.763Z,2.43
2018-04-26T13:57:33.923Z,2.13
2018-04-26T14:00:01.059Z,2.40
2018-04-26T14:02:28.097Z,2.50
2018-04-26T14:04:55.371Z,2.17
2018-04-26T14:07:22.484Z,1.83
2018-04-26T14:09:49.582Z,1.77
2018-04-26T14:12:16.772Z,1.17
2018-04-26T14:14:44.010Z,1.10
2018-04-26T14:17:11.085Z,1.07
2018-04-26T14:19:38.298Z,1.30
2018-04-26T14:22:05.480Z,1.50
2018-04-26T14:24:32.629Z,1.10
2018-04-26T14:26:59.706Z,1.50
2018-04-26T14:29:26.855Z,1.10
2018-04-26T14:31:53.883Z,1.30
2018-04-26T14:34:21.746Z,2.10
2018-04-26T14:36:48.915Z,1.87
2018-04-26T14:39:16.483Z,1.20
2018-04-26T14:41:43.572Z,1.23
2018-04-26T14:44:10.650Z,1.33
2018-04-26T14:46:37.812Z,2.20
2018-04-26T14:49:04.909Z,1.23
2018-04-26T14:51:31.996Z,1.20
2018-04-26T14:53:59.011Z,1.50
2018-04-26T14:56:26.024Z,1.33
2018-04-26T14:58:53.042Z,1.63
2018-04-26T15:01:20.126Z,1.27
2018-04-26T15:03:48.070Z,1.57
2018-04-26T15:06:15.285Z,1.63
2018-04-26T15:08:42.939Z,1.60
2018-04-26T15:11:10.925Z,2.00
2018-04-26T15:13:37.951Z,1.67
2018-04-26T15:16:04.960Z,1.90
2018-04-26T15:18:32.028Z,1.87
2018-04-26T15:20:59.085Z,1.80
2018-04-26T15:23:26.093Z,1.67
2018-04-26T15:25:53.083Z,1.83
2018-04-26T15:28:20.113Z,2.20
2018-04-26T15:30:47.192Z,1.60
2018-04-26T15:33:14.941Z,2.13
2018-04-26T15:35:42.052Z,2.70
2018-04-26T15:38:09.831Z,2.20
2018-04-26T15:40:37.068Z,2.57
2018-04-26T15:43:04.817Z,2.13
2018-04-26T15:45:31.809Z,1.80
2018-04-26T15:47:58.860Z,1.70
2018-04-26T15:50:52.014Z,2.33
2018-04-26T15:53:38.129Z,2.47
2018-04-26T15:56:15.265Z,2.37
2018-04-26T16:02:31.436Z,2.60
2018-04-26T16:05:23.263Z,2.00
2018-04-26T16:08:14.993Z,2.07
2018-04-26T16:14:05.516Z,2.50
2018-04-26T16:16:47.849Z,2.47
2018-04-26T16:19:40.200Z,2.90
2018-04-26T16:22:32.053Z,3.07
2018-04-26T16:25:17.400Z,3.23
2018-04-26T16:27:58.653Z,2.70
2018-04-26T16:30:44.327Z,2.80
2018-04-26T16:33:29.879Z,3.00
2018-04-26T16:36:15.352Z,3.43
2018-04-26T16:38:51.378Z,3.20
2018-04-26T16:41:19.248Z,2.77
2018-04-26T16:43:46.260Z,3.60
2018-04-26T16:46:13.308Z,3.13
2018-04-26T16:48:40.319Z,3.40
2018-04-26T16:51:07.408Z,3.77
2018-04-26T16:53:34.428Z,4.27
2018-04-26T16:56:01.457Z,3.80
2018-04-26T16:58:28.512Z,2.83
2018-04-26T17:00:55.557Z,3.30
2018-04-26T17:03:22.585Z,2.73
2018-04-26T17:05:50.332Z,2.90
2018-04-26T17:08:17.385Z,2.67
2018-04-26T17:10:44.496Z,3.00
2018-04-26T17:13:11.545Z,4.07
2018-04-26T17:15:38.629Z,4.07
2018-04-26T17:18:05.620Z,3.60
2018-04-26T17:20:32.689Z,3.40
2018-04-26T17:22:59.844Z,3.20
2018-04-26T17:25:26.929Z,3.87
2018-04-26T17:27:54.004Z,3.70
2018-04-26T17:30:22.093Z,4.03
2018-04-26T17:32:49.224Z,3.47
2018-04-26T17:35:16.696Z,3.77
2018-04-26T17:37:43.692Z,3.30
2018-04-26T17:40:11.575Z,3.63
2018-04-26T17:42:39.873Z,3.83
2018-04-26T17:45:06.988Z,5.17
2018-04-26T17:47:34.218Z,5.10
2018-04-26T17:50:02.206Z,3.53
2018-04-26T17:52:29.253Z,3.20
2018-04-26T17:54:57.292Z,3.57
2018-04-26T17:57:24.512Z,3.60
2018-04-26T17:59:51.671Z,3.00
2018-04-26T18:02:19.837Z,3.17
2018-04-26T18:04:47.252Z,3.47
2018-04-26T18:07:14.288Z,3.60
2018-04-26T18:09:41.567Z,3.00
2018-04-26T18:12:08.843Z,3.87
2018-04-26T18:14:36.012Z,4.10
2018-04-26T18:17:04.433Z,3.83
2018-04-26T18:19:31.658Z,5.23
2018-04-26T18:21:59.024Z,4.93
2018-04-26T18:24:26.088Z,4.60
2018-04-26T18:26:54.028Z,4.83
2018-04-26T18:29:21.397Z,5.33
2018-04-26T18:31:48.750Z,4.30
2018-04-26T18:34:16.964Z,4.50
2018-04-26T18:36:43.052Z,5.87
2018-04-26T18:39:10.255Z,5.00
2018-04-26T18:41:38.356Z,4.80
2018-04-26T18:44:05.455Z,5.53
2018-04-26T18:46:33.597Z,8.20
2018-04-26T18:49:00.961Z,6.03
2018-04-26T18:51:28.529Z,5.10
2018-04-26T18:53:56.392Z,4.60
2018-04-26T18:56:24.420Z,5.80
2018-04-26T18:58:52.100Z,5.77
2018-04-26T19:01:19.430Z,5.27
2018-04-26T19:03:47.292Z,4.70
2018-04-26T19:06:15.346Z,5.63
2018-04-26T19:08:42.444Z,5.50
2018-04-26T19:11:10.649Z,5.10
2018-04-26T19:13:37.704Z,5.83
2018-04-26T19:16:05.050Z,5.53
2018-04-26T19:18:33.089Z,4.77
2018-04-26T19:21:00.378Z,4.80
2018-04-26T19:23:27.741Z,6.03
2018-04-26T19:25:54.993Z,6.20
2018-04-26T19:28:22.191Z,5.53
2018-04-26T19:30:50.164Z,5.27
2018-04-26T19:33:17.433Z,7.00
2018-04-26T19:35:44.701Z,9.53
2018-04-26T19:38:11.749Z,8.47
2018-04-26T19:40:38.854Z,7.30
2018-04-26T19:43:06.214Z,7.83
2018-04-26T19:45:33.604Z,7.27
2018-04-26T19:48:00.942Z,7.67
2018-04-26T19:50:28.048Z,8.20
2018-04-26T19:52:55.233Z,8.53
2018-04-26T19:55:22.352Z,9.17
2018-04-26T19:57:49.536Z,8.53
2018-04-26T20:00:16.660Z,9.40
2018-04-26T20:02:43.716Z,9.40
2018-04-26T20:05:11.665Z,9.30
2018-04-26T20:07:38.671Z,10.57
2018-04-26T20:10:06.095Z,8.83
2018-04-26T20:12:33.376Z,10.80
2018-04-26T20:15:00.648Z,8.23
2018-04-26T20:17:27.961Z,7.03
2018-04-26T20:19:55.155Z,10.00
2018-04-26T20:22:22.633Z,9.30
2018-04-26T20:24:50.164Z,9.30
2018-04-26T20:27:17.204Z,9.50
2018-04-26T20:29:44.573Z,10.20
2018-04-26T20:32:12.554Z,8.50
2018-04-26T20:34:39.864Z,8.80
2018-04-26T20:37:07.926Z,8.57
2018-04-26T20:39:35.179Z,7.67
2018-04-26T20:42:02.460Z,8.67
2018-04-26T20:44:46.867Z,8.27
2018-04-26T20:47:13.916Z,8.47
2018-04-26T20:49:41.240Z,9.43
2018-04-26T20:52:08.597Z,8.77
2018-04-26T20:54:35.752Z,10.20
2018-04-26T20:57:02.877Z,9.50
2018-04-26T20:59:30.250Z,9.10
2018-04-26T21:01:57.444Z,8.90
2018-04-26T21:04:24.609Z,9.93
2018-04-26T21:06:51.945Z,8.27
2018-04-26T21:09:19.224Z,8.73
2018-04-26T21:11:46.547Z,9.70
2018-04-26T21:14:13.700Z,10.07
2018-04-26T21:16:40.953Z,9.70
2018-04-26T21:19:08.780Z,9.97
2018-04-26T21:21:35.840Z,10.50
2018-04-26T21:24:02.878Z,10.63
2018-04-26T21:26:29.913Z,10.20
2018-04-26T21:28:57.306Z,11.53
2018-04-26T21:31:25.528Z,10.77
2018-04-26T21:33:52.648Z,10.40
2018-04-26T21:36:19.800Z,9.70
2018-04-26T21:38:47.016Z,10.80
2018-04-26T21:41:14.297Z,9.60
2018-04-26T21:43:42.226Z,9.20
2018-04-26T21:46:09.608Z,7.87
2018-04-26T21:48:37.537Z,8.63
2018-04-26T21:51:10.952Z,8.03
2018-04-26T21:53:45.048Z,6.97
2018-04-26T21:56:18.192Z,5.73
2018-04-26T21:58:51.281Z,7.17
2018-04-26T22:01:24.453Z,7.50
2018-04-26T22:06:57.260Z,6.80
2018-04-26T22:09:24.447Z,6.87
2018-04-26T22:11:52.633Z,6.87
2018-04-26T22:14:19.897Z,6.97
2018-04-26T22:16:47.009Z,5.83
2018-04-26T22:19:14.544Z,6.70
2018-04-26T22:21:42.399Z,6.70
2018-04-26T22:24:09.717Z,5.93
2018-04-26T22:26:36.816Z,6.10
2018-04-26T22:29:04.160Z,6.23
2018-04-26T22:31:31.302Z,7.10
2018-04-26T22:33:58.316Z,6.23
2018-04-26T22:36:25.335Z,6.30
2018-04-26T22:38:52.319Z,7.30
2018-04-26T22:41:19.681Z,6.50
2018-04-26T22:43:47.684Z,6.30
2018-04-26T22:46:14.867Z,7.63
2018-04-26T22:48:41.923Z,7.13
2018-04-26T22:51:09.026Z,8.03
2018-04-26T22:53:37.136Z,7.13
2018-04-26T22:56:04.244Z,6.97
2018-04-26T22:58:31.420Z,6.87
2018-04-26T23:01:00.230Z,7.67
2018-04-26T23:03:27.463Z,6.97
2018-04-26T23:05:54.553Z,7.20
2018-04-26T23:08:22.306Z,6.37
2018-04-26T23:10:49.701Z,6.00
2018-04-26T23:13:17.633Z,5.57
2018-04-26T23:15:44.679Z,5.40
2018-04-26T23:18:12.821Z,5.83
2018-04-26T23:20:40.742Z,5.60
2018-04-26T23:23:08.244Z,5.33
2018-04-26T23:25:35.342Z,4.33
2018-04-26T23:28:03.313Z,5.50
2018-04-26T23:30:30.472Z,6.63
2018-04-26T23:32:57.772Z,5.50
2018-04-26T23:35:24.899Z,5.33
2018-04-26T23:37:51.976Z,5.40
2018-04-26T23:40:19.370Z,4.83
2018-04-26T23:42:46.631Z,4.57
2018-04-26T23:45:13.745Z,5.10
2018-04-26T23:47:40.817Z,5.93
2018-04-26T23:50:08.152Z,10.23
2018-04-26T23:52:35.452Z,11.13
2018-04-26T23:55:03.281Z,9.67
2018-04-26T23:57:30.520Z,10.20
2018-04-26T23:59:57.596Z,10.27
